createdAt,value
2022-12-08T00:01:01.541Z,47.99
2022-12-08T00:03:28.064Z,48.27
2022-12-08T00:05:54.618Z,47.47
2022-12-08T00:08:21.040Z,47.41
2022-12-08T00:10:49.339Z,47.32
2022-12-08T00:13:15.972Z,47.63
2022-12-08T00:15:42.328Z,47.58
2022-12-08T00:18:08.709Z,47.93
2022-12-08T00:20:35.054Z,47.50
2022-12-08T00:23:01.394Z,48.41
2022-12-08T00:25:27.740Z,47.67
2022-12-08T00:27:54.126Z,48.34
2022-12-08T00:30:20.518Z,47.49
2022-12-08T00:32:46.909Z,47.79
2022-12-08T00:35:13.309Z,48.76
2022-12-08T00:37:39.659Z,48.68
2022-12-08T00:40:06.430Z,48.50
2022-12-08T00:42:33.105Z,48.60
2022-12-08T00:44:59.517Z,48.46
2022-12-08T00:47:25.917Z,48.75
2022-12-08T00:49:52.263Z,48.95
2022-12-08T00:52:18.624Z,48.58
2022-12-08T00:54:44.953Z,48.73
2022-12-08T00:57:11.327Z,48.97
2022-12-08T00:59:37.702Z,48.86
2022-12-08T01:02:04.078Z,48.97
2022-12-08T01:04:30.429Z,48.19
2022-12-08T01:06:56.808Z,48.88
2022-12-08T01:09:23.175Z,49.07
2022-12-08T01:11:49.583Z,48.71
2022-12-08T01:14:15.977Z,48.74
2022-12-08T01:16:42.411Z,49.26
2022-12-08T01:19:08.802Z,48.74
2022-12-08T01:21:35.197Z,48.51
2022-12-08T01:24:01.549Z,48.01
2022-12-08T01:26:27.921Z,48.15
2022-12-08T01:28:54.282Z,48.36
2022-12-08T01:31:20.720Z,47.82
2022-12-08T01:33:47.133Z,48.31
2022-12-08T01:36:13.491Z,48.37
2022-12-08T01:38:39.824Z,48.46
2022-12-08T01:41:06.208Z,49.11
2022-12-08T01:43:32.591Z,49.34
2022-12-08T01:45:59.010Z,49.49
2022-12-08T01:48:25.446Z,49.96
2022-12-08T01:50:51.845Z,48.62
2022-12-08T01:53:18.191Z,49.30
2022-12-08T01:55:44.540Z,49.90
2022-12-08T01:58:10.925Z,49.28
2022-12-08T02:00:37.262Z,49.40
2022-12-08T02:03:03.680Z,49.02
2022-12-08T02:05:30.150Z,49.45
2022-12-08T02:07:56.505Z,49.40
2022-12-08T02:10:22.881Z,48.75
2022-12-08T02:12:49.223Z,49.07
2022-12-08T02:15:15.559Z,48.29
2022-12-08T02:17:41.886Z,49.03
2022-12-08T02:20:08.268Z,49.69
2022-12-08T02:22:34.618Z,49.86
2022-12-08T02:25:00.948Z,49.07
2022-12-08T02:27:27.329Z,50.20
2022-12-08T02:29:53.671Z,50.32
2022-12-08T02:32:20.059Z,49.73
2022-12-08T02:34:46.414Z,49.51
2022-12-08T02:37:12.782Z,49.13
2022-12-08T02:39:39.172Z,48.28
2022-12-08T02:42:05.562Z,48.27
2022-12-08T02:44:31.976Z,47.75
2022-12-08T02:46:58.332Z,48.47
2022-12-08T02:49:24.658Z,48.01
2022-12-08T02:51:50.992Z,47.50
2022-12-08T02:54:17.348Z,48.01
2022-12-08T02:56:43.739Z,47.57
2022-12-08T02:59:10.159Z,47.94
2022-12-08T03:01:37.781Z,47.70
2022-12-08T03:04:04.258Z,47.24
2022-12-08T03:06:30.640Z,47.63
2022-12-08T03:08:56.978Z,47.55
2022-12-08T03:11:23.355Z,47.69
2022-12-08T03:13:49.759Z,48.05
2022-12-08T03:16:16.148Z,48.16
2022-12-08T03:18:44.194Z,47.89
2022-12-08T03:21:10.742Z,47.23
2022-12-08T03:23:37.158Z,47.69
2022-12-08T03:26:03.552Z,47.84
2022-12-08T03:28:29.972Z,47.48
2022-12-08T03:30:56.380Z,47.29
2022-12-08T03:33:22.744Z,47.31
2022-12-08T03:35:49.138Z,47.48
2022-12-08T03:38:15.466Z,47.36
2022-12-08T03:40:41.802Z,47.11
2022-12-08T03:43:08.184Z,47.45
2022-12-08T03:45:34.586Z,47.48
2022-12-08T03:48:00.939Z,47.67
2022-12-08T03:50:27.302Z,47.77
2022-12-08T03:52:53.628Z,48.18
2022-12-08T03:55:20.020Z,48.94
2022-12-08T03:57:46.374Z,47.70
2022-12-08T04:00:12.765Z,48.10
2022-12-08T04:02:39.152Z,47.56
2022-12-08T04:05:05.554Z,47.81
2022-12-08T04:07:31.941Z,47.76
2022-12-08T04:09:58.310Z,48.97
2022-12-08T04:12:24.637Z,48.32
2022-12-08T04:14:51.027Z,46.60
2022-12-08T04:17:17.372Z,46.76
2022-12-08T04:19:43.753Z,46.79
2022-12-08T04:22:10.184Z,46.41
2022-12-08T04:24:36.562Z,46.96
2022-12-08T04:27:02.948Z,48.07
2022-12-08T04:29:29.290Z,48.49
2022-12-08T04:31:55.753Z,47.57
2022-12-08T04:34:22.206Z,47.63
2022-12-08T04:36:48.607Z,49.54
2022-12-08T04:39:14.965Z,50.29
2022-12-08T04:41:41.339Z,49.47
2022-12-08T04:44:07.703Z,48.74
2022-12-08T04:46:35.161Z,47.63
2022-12-08T04:49:03.166Z,47.81
2022-12-08T04:51:29.511Z,48.02
2022-12-08T04:53:55.892Z,48.43
2022-12-08T04:56:22.271Z,48.54
2022-12-08T04:58:48.672Z,49.09
2022-12-08T05:01:15.100Z,49.14
2022-12-08T05:03:41.532Z,49.35
2022-12-08T05:06:07.918Z,50.11
2022-12-08T05:08:34.345Z,49.73
2022-12-08T05:11:00.751Z,50.37
2022-12-08T05:13:27.095Z,49.91
2022-12-08T05:15:53.452Z,49.84
2022-12-08T05:18:19.848Z,48.69
2022-12-08T05:20:46.199Z,48.74
2022-12-08T05:23:12.586Z,49.11
2022-12-08T05:25:38.974Z,49.11
2022-12-08T05:28:39.131Z,48.65
2022-12-08T05:30:51.668Z,49.15
2022-12-08T05:33:18.035Z,49.10
2022-12-08T05:35:44.413Z,47.53
2022-12-08T05:38:10.798Z,46.86
2022-12-08T05:40:37.193Z,46.71
2022-12-08T05:43:03.540Z,47.08
2022-12-08T05:45:29.914Z,48.56
2022-12-08T05:47:56.325Z,47.43
2022-12-08T05:50:22.670Z,47.33
2022-12-08T05:52:49.050Z,47.57
2022-12-08T05:55:15.415Z,47.56
2022-12-08T05:57:41.765Z,47.65
2022-12-08T06:00:08.298Z,47.95
2022-12-08T06:02:34.854Z,48.22
2022-12-08T06:05:01.267Z,47.94
2022-12-08T06:07:27.616Z,47.95
2022-12-08T06:09:53.955Z,48.28
2022-12-08T06:12:20.295Z,48.52
2022-12-08T06:14:46.678Z,49.54
2022-12-08T06:17:13.057Z,49.01
2022-12-08T06:19:42.182Z,48.15
2022-12-08T06:22:08.574Z,48.85
2022-12-08T06:24:37.929Z,48.19
2022-12-08T06:27:04.321Z,48.28
2022-12-08T06:29:30.727Z,47.94
2022-12-08T06:31:57.285Z,48.50
2022-12-08T06:34:23.697Z,49.37
2022-12-08T06:36:50.191Z,49.40
2022-12-08T06:39:16.569Z,49.18
2022-12-08T06:41:42.953Z,48.94
2022-12-08T06:44:09.350Z,48.56
2022-12-08T06:46:35.738Z,48.09
2022-12-08T06:49:02.146Z,47.92
2022-12-08T06:51:28.499Z,47.31
2022-12-08T06:53:54.866Z,47.00
2022-12-08T06:56:21.257Z,47.36
2022-12-08T06:58:52.416Z,46.97
2022-12-08T07:01:19.380Z,46.91
2022-12-08T07:03:45.854Z,47.38
2022-12-08T07:06:12.211Z,46.93
2022-12-08T07:08:38.613Z,47.24
2022-12-08T07:11:04.945Z,47.04
2022-12-08T07:13:31.332Z,45.72
2022-12-08T07:15:57.726Z,45.83
2022-12-08T07:18:24.119Z,46.26
2022-12-08T07:20:50.463Z,45.78
2022-12-08T07:23:16.801Z,45.99
2022-12-08T07:25:43.194Z,46.87
2022-12-08T07:28:09.548Z,46.64
2022-12-08T07:30:35.959Z,46.31
2022-12-08T07:33:02.358Z,46.35
2022-12-08T07:35:28.716Z,46.17
2022-12-08T07:37:55.105Z,46.02
2022-12-08T07:40:21.505Z,46.64
2022-12-08T07:42:47.890Z,46.39
2022-12-08T07:45:14.267Z,46.01
2022-12-08T07:47:40.606Z,46.77
2022-12-08T07:50:07.095Z,46.57
2022-12-08T07:52:33.598Z,46.00
2022-12-08T07:55:00.008Z,45.71
2022-12-08T07:57:26.414Z,45.52
2022-12-08T07:59:52.820Z,45.47
2022-12-08T08:02:24.792Z,45.65
2022-12-08T08:04:52.349Z,45.50
2022-12-08T08:07:18.856Z,45.67
2022-12-08T08:09:45.357Z,45.63
2022-12-08T08:12:30.365Z,46.22
2022-12-08T08:14:57.480Z,46.14
2022-12-08T08:17:23.951Z,45.51
2022-12-08T08:19:50.415Z,45.60
2022-12-08T08:22:16.758Z,45.76
2022-12-08T08:24:45.079Z,45.50
2022-12-08T08:27:11.769Z,44.51
2022-12-08T08:29:38.160Z,45.16
2022-12-08T08:32:04.551Z,45.30
2022-12-08T08:34:30.946Z,45.17
2022-12-08T08:36:57.404Z,45.70
2022-12-08T08:39:23.837Z,45.22
2022-12-08T08:41:50.229Z,45.44
2022-12-08T08:44:16.617Z,44.86
2022-12-08T08:46:43.060Z,46.03
2022-12-08T08:49:09.504Z,45.51
2022-12-08T08:51:35.925Z,45.76
2022-12-08T08:54:02.318Z,45.99
2022-12-08T08:56:28.691Z,44.79
2022-12-08T08:58:55.090Z,44.54
2022-12-08T09:01:21.491Z,45.15
2022-12-08T09:03:47.910Z,45.33
2022-12-08T09:06:14.329Z,44.96
2022-12-08T09:08:40.782Z,45.32
2022-12-08T09:11:07.150Z,45.29
2022-12-08T09:13:33.527Z,45.02
2022-12-08T09:15:59.927Z,45.91
2022-12-08T09:18:26.347Z,45.56
2022-12-08T09:20:52.741Z,45.23
2022-12-08T09:23:19.116Z,44.34
2022-12-08T09:25:45.506Z,44.24
2022-12-08T09:28:11.864Z,44.38
2022-12-08T09:30:38.251Z,43.80
2022-12-08T09:33:04.653Z,44.29
2022-12-08T09:35:31.053Z,44.16
2022-12-08T09:37:57.457Z,43.84
2022-12-08T09:40:23.855Z,43.87
2022-12-08T09:42:50.258Z,43.90
2022-12-08T09:45:16.614Z,43.11
2022-12-08T09:47:43.002Z,43.13
2022-12-08T09:50:09.428Z,43.82
2022-12-08T09:52:35.823Z,43.84
2022-12-08T09:55:02.331Z,43.58
2022-12-08T09:57:28.667Z,43.79
2022-12-08T09:59:55.058Z,44.58
2022-12-08T10:02:21.499Z,44.79
2022-12-08T10:04:48.022Z,45.46
2022-12-08T10:07:14.396Z,44.12
2022-12-08T10:09:41.051Z,43.12
2022-12-08T10:12:07.509Z,44.01
2022-12-08T10:14:33.960Z,43.42
2022-12-08T10:17:00.451Z,43.43
2022-12-08T10:19:26.864Z,44.04
2022-12-08T10:21:53.232Z,42.79
2022-12-08T10:24:19.577Z,43.25
2022-12-08T10:26:45.954Z,43.23
2022-12-08T10:29:12.304Z,43.23
2022-12-08T10:31:38.891Z,42.96
2022-12-08T10:34:05.318Z,42.02
2022-12-08T10:36:31.719Z,41.84
2022-12-08T10:38:58.079Z,41.97
2022-12-08T10:41:24.457Z,42.91
2022-12-08T10:43:50.852Z,43.65
2022-12-08T10:46:17.328Z,42.22
2022-12-08T10:48:43.727Z,42.21
2022-12-08T10:51:10.080Z,42.72
2022-12-08T10:53:36.439Z,42.87
2022-12-08T10:56:02.849Z,42.77
2022-12-08T10:58:29.337Z,42.92
2022-12-08T11:00:55.815Z,42.56
2022-12-08T11:03:22.252Z,43.12
2022-12-08T11:05:48.588Z,42.42
2022-12-08T11:08:15.029Z,42.76
2022-12-08T11:10:41.434Z,42.63
2022-12-08T11:13:07.793Z,40.76
2022-12-08T11:15:34.143Z,41.18
2022-12-08T11:18:00.533Z,41.11
2022-12-08T11:20:26.920Z,42.30
2022-12-08T11:22:53.301Z,41.96
2022-12-08T11:25:19.697Z,44.00
2022-12-08T11:27:46.076Z,43.12
2022-12-08T11:30:14.583Z,42.32
2022-12-08T11:32:41.421Z,43.07
2022-12-08T11:35:07.774Z,44.06
2022-12-08T11:37:35.195Z,44.28
2022-12-08T11:40:01.919Z,43.43
2022-12-08T11:42:28.450Z,42.95
2022-12-08T11:44:54.800Z,42.78
2022-12-08T11:47:21.189Z,42.96
2022-12-08T11:52:13.770Z,42.99
2022-12-08T11:54:40.129Z,44.48
2022-12-08T11:57:06.492Z,44.57
2022-12-08T11:59:32.856Z,42.76
2022-12-08T12:01:59.383Z,43.88
2022-12-08T12:04:25.788Z,41.84
2022-12-08T12:06:55.712Z,43.23
2022-12-08T12:09:22.227Z,42.86
2022-12-08T12:11:48.563Z,43.12
2022-12-08T12:14:14.960Z,43.35
2022-12-08T12:16:41.448Z,43.24
2022-12-08T12:19:07.911Z,43.30
2022-12-08T12:21:34.300Z,41.86
2022-12-08T12:24:00.649Z,42.50
2022-12-08T12:26:27.000Z,43.30
2022-12-08T12:28:53.458Z,42.07
2022-12-08T12:31:19.900Z,42.39
2022-12-08T12:33:46.330Z,43.81
2022-12-08T12:36:12.685Z,41.86
2022-12-08T12:38:39.062Z,41.85
2022-12-08T12:41:05.411Z,42.23
2022-12-08T12:43:31.750Z,42.98
2022-12-08T12:45:58.171Z,43.77
2022-12-08T12:48:24.651Z,44.34
2022-12-08T12:50:51.048Z,44.33
2022-12-08T12:53:17.456Z,43.75
2022-12-08T12:55:43.842Z,43.32
2022-12-08T12:58:10.203Z,43.60
2022-12-08T13:00:36.547Z,42.95
2022-12-08T13:03:03.006Z,43.38
2022-12-08T13:05:29.413Z,42.72
2022-12-08T13:07:55.792Z,42.51
2022-12-08T13:10:22.181Z,43.46
2022-12-08T13:12:48.522Z,43.51
2022-12-08T13:15:14.870Z,43.18
2022-12-08T13:17:41.210Z,42.90
2022-12-08T13:20:08.043Z,43.68
2022-12-08T13:22:34.532Z,43.45
2022-12-08T13:25:00.921Z,43.35
2022-12-08T13:27:27.323Z,42.94
2022-12-08T13:29:53.717Z,42.53
2022-12-08T13:32:20.140Z,43.07
2022-12-08T13:34:46.539Z,42.66
2022-12-08T13:37:12.891Z,43.67
2022-12-08T13:39:39.236Z,43.09
2022-12-08T13:42:05.619Z,41.61
2022-12-08T13:45:18.474Z,42.47
2022-12-08T13:47:33.237Z,43.19
2022-12-08T13:56:51.286Z,42.42
2022-12-08T13:58:19.493Z,42.59
2022-12-08T14:00:45.868Z,42.34
2022-12-08T14:03:12.319Z,42.27
2022-12-08T14:06:10.516Z,43.11
2022-12-08T14:08:50.708Z,44.00
2022-12-08T14:11:11.455Z,45.19
2022-12-08T14:13:37.815Z,45.68
2022-12-08T14:16:04.211Z,44.72
2022-12-08T14:18:30.584Z,45.80
2022-12-08T14:21:19.937Z,46.16
2022-12-08T14:23:43.324Z,47.40
2022-12-08T14:26:09.705Z,46.35
2022-12-08T14:28:40.041Z,45.40
2022-12-08T14:31:09.458Z,46.29
2022-12-08T14:33:35.866Z,45.66
2022-12-08T14:36:02.254Z,45.98
2022-12-08T14:38:28.679Z,46.18
2022-12-08T14:40:55.162Z,45.08
2022-12-08T14:43:21.584Z,45.92
2022-12-08T14:45:47.982Z,45.50
2022-12-08T14:48:14.367Z,45.06
2022-12-08T14:50:40.783Z,44.29
2022-12-08T14:53:07.131Z,44.70
2022-12-08T14:55:33.471Z,44.98
2022-12-08T14:57:59.862Z,45.12
2022-12-08T15:00:26.225Z,45.20
2022-12-08T15:02:52.615Z,45.48
2022-12-08T15:05:19.049Z,45.19
2022-12-08T15:07:45.535Z,46.65
2022-12-08T15:10:11.999Z,47.21
2022-12-08T15:12:38.360Z,46.83
2022-12-08T15:15:04.715Z,46.32
2022-12-08T15:17:31.140Z,46.19
2022-12-08T15:19:57.534Z,46.35
2022-12-08T15:22:23.872Z,46.38
2022-12-08T15:24:50.223Z,46.78
2022-12-08T15:27:16.621Z,48.73
2022-12-08T15:29:43.000Z,49.64
2022-12-08T15:32:09.349Z,49.23
2022-12-08T15:34:35.726Z,49.21
2022-12-08T15:37:02.116Z,48.44
2022-12-08T15:39:28.518Z,47.34
2022-12-08T15:41:56.049Z,45.90
2022-12-08T15:44:22.446Z,46.94
2022-12-08T15:46:48.834Z,45.89
2022-12-08T15:49:15.265Z,45.56
2022-12-08T15:51:41.618Z,45.50
2022-12-08T15:54:08.009Z,46.09
2022-12-08T15:56:37.382Z,45.16
2022-12-08T15:59:07.596Z,46.10
2022-12-08T16:01:34.061Z,45.91
2022-12-08T16:09:33.486Z,47.27
2022-12-08T16:12:09.615Z,47.96
2022-12-08T16:17:22.987Z,46.72
2022-12-08T16:19:49.371Z,46.25
2022-12-08T16:25:17.759Z,46.19
2022-12-08T16:28:08.406Z,45.88
2022-12-08T16:30:31.262Z,46.29
2022-12-08T16:32:57.645Z,45.67
2022-12-08T16:35:23.998Z,45.06
2022-12-08T16:37:50.377Z,44.88
2022-12-08T16:40:16.781Z,45.72
2022-12-08T16:42:43.179Z,45.87
2022-12-08T16:45:09.530Z,45.31
2022-12-08T16:47:35.889Z,45.82
2022-12-08T16:50:02.247Z,45.48
2022-12-08T16:52:28.625Z,45.17
2022-12-08T16:54:55.027Z,45.65
2022-12-08T16:57:21.389Z,45.14
2022-12-08T16:59:47.718Z,46.02
2022-12-08T17:02:16.629Z,46.00
2022-12-08T17:04:43.204Z,45.28
2022-12-08T17:07:09.769Z,44.95
2022-12-08T17:09:36.155Z,45.63
2022-12-08T17:12:04.253Z,45.54
2022-12-08T17:14:30.888Z,46.20
2022-12-08T17:16:57.322Z,46.68
2022-12-08T17:19:23.712Z,46.37
2022-12-08T17:21:50.042Z,46.38
2022-12-08T17:24:21.761Z,46.50
2022-12-08T17:26:48.492Z,46.25
2022-12-08T17:29:14.913Z,47.59
2022-12-08T17:31:41.336Z,47.48
2022-12-08T17:34:07.744Z,47.17
2022-12-08T17:36:34.137Z,46.04
2022-12-08T17:39:00.567Z,46.05
2022-12-08T17:41:26.981Z,45.67
2022-12-08T17:43:53.369Z,45.78
2022-12-08T17:46:19.945Z,45.79
2022-12-08T17:48:46.386Z,46.25
2022-12-08T17:51:12.738Z,46.30
2022-12-08T17:53:39.151Z,46.04
2022-12-08T17:56:05.558Z,45.71
2022-12-08T17:58:31.911Z,46.42
2022-12-08T18:00:58.330Z,46.36
2022-12-08T18:03:24.775Z,46.48
2022-12-08T18:05:51.158Z,45.67
2022-12-08T18:08:17.532Z,46.23
2022-12-08T18:10:43.973Z,46.81
2022-12-08T18:13:10.371Z,46.48
2022-12-08T18:15:39.341Z,47.09
2022-12-08T18:18:05.872Z,47.75
2022-12-08T18:20:32.255Z,47.78
2022-12-08T18:22:58.587Z,47.56
2022-12-08T18:25:24.924Z,47.89
2022-12-08T18:27:51.282Z,48.46
2022-12-08T18:30:17.675Z,47.60
2022-12-08T18:32:44.084Z,47.25
2022-12-08T18:35:10.494Z,47.89
2022-12-08T18:37:36.890Z,48.33
2022-12-08T18:40:03.525Z,48.25
2022-12-08T18:42:30.165Z,48.31
2022-12-08T18:44:56.519Z,47.42
2022-12-08T18:47:22.882Z,48.08
2022-12-08T18:49:49.242Z,47.75
2022-12-08T18:52:19.285Z,47.54
2022-12-08T18:55:05.681Z,47.94
2022-12-08T18:57:33.319Z,48.33
2022-12-08T18:59:59.696Z,49.00
2022-12-08T19:02:26.172Z,48.44
2022-12-08T19:04:53.993Z,48.77
2022-12-08T19:07:20.409Z,48.51
2022-12-08T19:09:46.766Z,48.19
2022-12-08T19:12:13.161Z,48.48
2022-12-08T19:14:39.496Z,48.18
2022-12-08T19:17:05.882Z,48.63
2022-12-08T19:19:32.252Z,48.42
2022-12-08T19:21:58.629Z,48.04
2022-12-08T19:24:24.993Z,48.77
2022-12-08T19:26:51.372Z,49.26
2022-12-08T19:29:17.785Z,49.76
2022-12-08T19:31:44.195Z,48.84
2022-12-08T19:34:10.569Z,48.94
2022-12-08T19:36:36.898Z,48.81
2022-12-08T19:39:03.361Z,48.56
2022-12-08T19:41:29.727Z,48.21
2022-12-08T19:43:56.114Z,48.07
2022-12-08T19:46:22.646Z,47.79
2022-12-08T19:48:49.173Z,47.67
2022-12-08T19:51:15.519Z,47.79
2022-12-08T19:53:47.194Z,47.29
2022-12-08T19:56:14.094Z,47.35
2022-12-08T19:58:40.453Z,48.42
2022-12-08T20:01:06.808Z,47.63
2022-12-08T20:03:33.228Z,47.70
2022-12-08T20:05:59.674Z,47.97
2022-12-08T20:08:26.053Z,48.44
2022-12-08T20:10:52.465Z,49.51
2022-12-08T20:13:18.855Z,49.63
2022-12-08T20:15:45.304Z,49.06
2022-12-08T20:18:11.793Z,49.20
2022-12-08T20:20:38.161Z,50.27
2022-12-08T20:23:04.543Z,50.28
2022-12-08T20:25:30.956Z,50.30
2022-12-08T20:27:57.371Z,50.44
2022-12-08T20:30:23.955Z,50.75
2022-12-08T20:32:50.356Z,51.34
2022-12-08T20:35:16.800Z,50.01
2022-12-08T20:37:43.167Z,51.25
2022-12-08T20:40:09.558Z,51.06
2022-12-08T20:42:35.914Z,50.54
2022-12-08T20:45:02.328Z,51.12
2022-12-08T20:47:28.865Z,50.93
2022-12-08T20:49:55.435Z,52.41
2022-12-08T20:52:21.901Z,51.18
2022-12-08T20:54:48.362Z,51.84
2022-12-08T20:57:14.775Z,50.81
2022-12-08T20:59:41.228Z,50.54
2022-12-08T21:02:07.685Z,50.58
2022-12-08T21:04:34.274Z,49.84
2022-12-08T21:07:00.724Z,49.87
2022-12-08T21:09:27.283Z,50.04
2022-12-08T21:11:54.029Z,50.20
2022-12-08T21:14:20.543Z,49.82
2022-12-08T21:16:47.191Z,48.31
2022-12-08T21:19:13.720Z,48.89
2022-12-08T21:21:40.209Z,48.98
2022-12-08T21:24:06.880Z,49.35
2022-12-08T21:26:33.465Z,49.73
2022-12-08T21:28:59.942Z,48.83
2022-12-08T21:31:26.506Z,48.98
2022-12-08T21:33:52.984Z,48.85
2022-12-08T21:36:19.400Z,48.93
2022-12-08T21:38:45.915Z,49.51
2022-12-08T21:41:12.290Z,48.70
2022-12-08T21:43:38.859Z,49.16
2022-12-08T21:46:05.352Z,49.57
2022-12-08T21:48:31.917Z,49.88
2022-12-08T21:50:58.392Z,50.03
2022-12-08T21:53:24.779Z,50.25
2022-12-08T21:55:51.140Z,50.37
2022-12-08T21:58:17.645Z,49.98
2022-12-08T22:00:44.286Z,50.27
2022-12-08T22:03:10.860Z,50.02
2022-12-08T22:05:37.568Z,50.01
2022-12-08T22:08:04.119Z,50.49
2022-12-08T22:10:30.615Z,50.91
2022-12-08T22:12:57.154Z,50.79
2022-12-08T22:15:23.673Z,51.12
2022-12-08T22:17:50.059Z,50.98
2022-12-08T22:20:16.859Z,51.73
2022-12-08T22:22:43.470Z,51.68
2022-12-08T22:25:09.887Z,51.93
2022-12-08T22:27:36.599Z,52.75
2022-12-08T22:30:03.185Z,52.65
2022-12-08T22:32:29.825Z,52.67
2022-12-08T22:34:56.286Z,52.07
2022-12-08T22:37:22.677Z,52.04
2022-12-08T22:39:49.071Z,51.88
2022-12-08T22:42:15.567Z,51.69
2022-12-08T22:44:42.133Z,51.85
2022-12-08T22:47:08.633Z,52.96
2022-12-08T22:49:35.368Z,55.98
2022-12-08T22:52:01.894Z,55.83
2022-12-08T22:54:28.290Z,56.70
2022-12-08T22:56:54.757Z,57.46
2022-12-08T22:59:21.127Z,55.44
2022-12-08T23:01:47.502Z,58.41
2022-12-08T23:04:17.644Z,57.75
2022-12-08T23:06:44.742Z,57.92
2022-12-08T23:09:11.343Z,57.98
2022-12-08T23:11:37.819Z,58.48
2022-12-08T23:14:04.375Z,58.48
2022-12-08T23:16:31.176Z,59.18
2022-12-08T23:18:57.821Z,60.43
2022-12-08T23:21:24.370Z,63.52
2022-12-08T23:23:50.947Z,61.67
2022-12-08T23:26:17.495Z,62.03
2022-12-08T23:28:43.958Z,61.39
2022-12-08T23:31:10.377Z,61.63
2022-12-08T23:33:36.869Z,61.60
2022-12-08T23:36:03.443Z,61.84
2022-12-08T23:38:29.867Z,62.97
2022-12-08T23:40:56.361Z,62.11
2022-12-08T23:43:22.737Z,63.90
2022-12-08T23:45:49.104Z,62.97
2022-12-08T23:48:15.584Z,62.37
2022-12-08T23:50:41.949Z,62.36
2022-12-08T23:53:08.512Z,62.76
2022-12-08T23:55:34.970Z,64.05
2022-12-08T23:58:01.597Z,64.39
